createdAt,value
2022-10-16T00:01:19.789Z,99673.59
2022-10-16T00:03:49.349Z,99678.84
2022-10-16T00:06:21.081Z,99692.81
2022-10-16T00:08:49.976Z,99686.38
2022-10-16T00:11:22.879Z,99700.69
2022-10-16T00:13:53.084Z,99710.41
2022-10-16T00:16:21.368Z,99713.03
2022-10-16T00:18:49.954Z,99706.16
2022-10-16T00:21:22.311Z,99714.88
2022-10-16T00:23:53.715Z,99718.66
2022-10-16T00:26:22.346Z,99720.88
2022-10-16T00:28:51.621Z,99728.91
2022-10-16T00:31:22.703Z,99729.56
2022-10-16T00:33:51.419Z,99728.91
2022-10-16T00:36:23.381Z,99735.00
2022-10-16T00:38:54.771Z,99723.66
2022-10-16T00:41:25.338Z,99732.56
2022-10-16T00:43:55.420Z,99741.25
2022-10-16T00:46:25.848Z,99735.38
2022-10-16T00:48:58.512Z,99732.91
2022-10-16T00:51:33.874Z,99744.69
2022-10-16T00:54:03.603Z,99739.09
2022-10-16T00:56:31.727Z,99739.69
2022-10-16T00:59:01.897Z,99750.88
2022-10-16T01:01:30.691Z,99757.94
2022-10-16T01:03:58.918Z,99758.09
2022-10-16T01:06:38.545Z,99760.13
2022-10-16T01:09:16.199Z,99768.63
2022-10-16T01:11:52.325Z,99754.13
2022-10-16T01:14:39.171Z,99751.69
2022-10-16T01:17:13.764Z,99752.50
2022-10-16T01:20:03.604Z,99767.47
2022-10-16T01:22:45.827Z,99759.13
2022-10-16T01:25:25.754Z,99770.91
2022-10-16T01:27:55.406Z,99772.63
2022-10-16T01:30:27.949Z,99786.31
2022-10-16T01:33:01.014Z,99792.41
2022-10-16T01:35:32.473Z,99788.94
2022-10-16T01:38:06.145Z,99782.25
2022-10-16T01:40:36.694Z,99801.41
2022-10-16T01:43:10.459Z,99808.91
2022-10-16T01:45:39.512Z,99815.97
2022-10-16T01:48:10.752Z,99818.06
2022-10-16T01:50:42.706Z,99830.75
2022-10-16T01:53:15.693Z,99840.44
2022-10-16T01:55:48.354Z,99837.19
2022-10-16T01:58:18.004Z,99834.56
2022-10-16T02:00:48.393Z,99837.53
2022-10-16T02:03:20.577Z,99849.59
2022-10-16T02:05:52.214Z,99858.59
2022-10-16T02:08:21.189Z,99847.53
2022-10-16T02:10:49.407Z,99857.50
2022-10-16T02:13:23.839Z,99861.59
2022-10-16T02:15:52.099Z,99848.97
2022-10-16T02:18:21.002Z,99870.38
2022-10-16T02:20:55.764Z,99863.03
2022-10-16T02:23:30.299Z,99878.34
2022-10-16T02:26:01.305Z,99880.00
2022-10-16T02:28:39.232Z,99890.66
2022-10-16T02:31:13.451Z,99896.09
2022-10-16T02:33:45.244Z,99905.44
2022-10-16T02:36:13.295Z,99898.19
2022-10-16T02:38:42.740Z,99918.88
2022-10-16T02:41:11.440Z,99928.13
2022-10-16T02:43:41.031Z,99914.50
2022-10-16T02:46:09.475Z,99928.47
2022-10-16T02:48:37.560Z,99922.75
2022-10-16T02:51:06.019Z,99927.66
2022-10-16T02:53:34.166Z,99942.63
2022-10-16T02:56:02.270Z,99942.63
2022-10-16T02:58:30.511Z,99937.88
2022-10-16T03:01:00.044Z,99947.41
2022-10-16T03:03:28.204Z,99955.09
2022-10-16T03:05:56.565Z,99970.06
2022-10-16T03:08:26.291Z,99974.31
2022-10-16T03:10:54.756Z,99968.25
2022-10-16T03:13:23.244Z,99972.41
2022-10-16T03:15:51.727Z,99979.94
2022-10-16T03:18:21.250Z,99956.28
2022-10-16T03:20:49.590Z,99980.56
2022-10-16T03:23:17.841Z,99988.13
2022-10-16T03:25:47.324Z,100002.06
2022-10-16T03:28:16.675Z,99995.34
2022-10-16T03:30:45.917Z,100011.31
2022-10-16T03:33:14.452Z,100004.59
2022-10-16T03:35:44.112Z,100018.09
2022-10-16T03:38:12.289Z,100016.75
2022-10-16T03:40:40.384Z,100030.06
2022-10-16T03:43:08.683Z,100022.34
2022-10-16T03:45:36.989Z,100029.41
2022-10-16T03:48:05.251Z,100039.28
2022-10-16T03:50:33.400Z,100048.16
2022-10-16T03:53:02.869Z,100058.03
2022-10-16T03:55:31.072Z,100064.91
2022-10-16T03:57:59.210Z,100073.63
2022-10-16T04:00:27.378Z,100072.66
2022-10-16T04:02:55.717Z,100097.28
2022-10-16T04:05:24.035Z,100086.31
2022-10-16T04:07:52.182Z,100102.53
2022-10-16T04:10:21.647Z,100110.41
2022-10-16T04:12:50.099Z,100121.44
2022-10-16T04:15:18.295Z,100116.19
2022-10-16T04:17:46.296Z,100119.00
2022-10-16T04:20:14.605Z,100125.56
2022-10-16T04:22:42.814Z,100139.03
2022-10-16T04:25:12.347Z,100152.66
2022-10-16T04:27:45.191Z,100145.41
2022-10-16T04:30:14.653Z,100157.38
2022-10-16T04:32:43.191Z,100164.47
2022-10-16T04:35:11.467Z,100173.97
2022-10-16T04:37:39.618Z,100183.50
2022-10-16T04:40:08.668Z,100189.94
2022-10-16T04:42:36.881Z,100200.44
2022-10-16T04:45:07.600Z,100200.44
2022-10-16T04:47:35.721Z,100199.63
2022-10-16T04:50:04.003Z,100210.13
2022-10-16T04:52:32.713Z,100216.22
2022-10-16T04:55:03.515Z,100220.28
2022-10-16T04:57:31.883Z,100219.34
2022-10-16T05:00:00.120Z,100221.66
2022-10-16T05:02:29.643Z,100224.75
2022-10-16T05:04:57.751Z,100232.81
2022-10-16T05:07:26.320Z,100232.50
2022-10-16T05:09:54.728Z,100230.41
2022-10-16T05:12:22.876Z,100231.56
2022-10-16T05:14:51.018Z,100228.75
2022-10-16T05:17:19.122Z,100222.69
2022-10-16T05:19:48.505Z,100216.44
2022-10-16T05:22:16.665Z,100220.69
2022-10-16T05:24:44.846Z,100217.44
2022-10-16T05:27:19.824Z,100219.88
2022-10-16T05:29:48.789Z,100221.50
2022-10-16T05:32:17.800Z,100230.06
2022-10-16T05:34:46.757Z,100232.50
2022-10-16T05:37:16.172Z,100242.84
2022-10-16T05:39:44.372Z,100242.34
2022-10-16T05:42:12.565Z,100250.41
2022-10-16T05:44:40.838Z,100248.41
2022-10-16T05:47:09.007Z,100256.28
2022-10-16T05:49:39.173Z,100257.97
2022-10-16T05:52:09.542Z,100266.47
2022-10-16T05:54:38.995Z,100270.75
2022-10-16T05:57:07.836Z,100274.38
2022-10-16T05:59:35.958Z,100286.69
2022-10-16T06:02:04.124Z,100296.38
2022-10-16T06:04:32.253Z,100301.47
2022-10-16T06:07:02.513Z,100309.34
2022-10-16T06:09:30.577Z,100321.66
2022-10-16T06:12:00.051Z,100330.22
2022-10-16T06:14:28.432Z,100332.69
2022-10-16T06:16:56.639Z,100337.13
2022-10-16T06:19:25.135Z,100346.16
2022-10-16T06:21:53.237Z,100352.88
2022-10-16T06:24:21.610Z,100350.75
2022-10-16T06:26:49.688Z,100357.84
2022-10-16T06:29:19.141Z,100369.81
2022-10-16T06:31:47.278Z,100377.03
2022-10-16T06:34:15.364Z,100389.50
2022-10-16T06:36:44.520Z,100388.69
2022-10-16T06:39:12.616Z,100398.72
2022-10-16T06:41:40.861Z,100410.72
2022-10-16T06:44:09.682Z,100421.56
2022-10-16T06:46:39.283Z,100422.06
2022-10-16T06:49:07.405Z,100432.25
2022-10-16T06:51:40.557Z,100437.97
2022-10-16T06:54:11.217Z,100448.84
2022-10-16T06:56:39.393Z,100454.72
2022-10-16T06:59:07.718Z,100460.31
2022-10-16T07:01:36.064Z,100467.22
2022-10-16T07:04:05.652Z,100474.28
2022-10-16T07:06:35.364Z,100472.13
2022-10-16T07:09:06.445Z,100488.88
2022-10-16T07:11:35.718Z,100470.31
2022-10-16T07:14:03.998Z,100465.38
2022-10-16T07:16:34.296Z,100477.34
2022-10-16T07:19:04.143Z,100482.44
2022-10-16T07:21:37.210Z,100495.25
2022-10-16T07:24:07.537Z,100493.13
2022-10-16T07:26:37.877Z,100511.88
2022-10-16T07:29:06.215Z,100510.72
2022-10-16T07:31:34.587Z,100524.34
2022-10-16T07:34:03.079Z,100528.47
2022-10-16T07:36:31.318Z,100528.63
2022-10-16T07:39:00.896Z,100531.59
2022-10-16T07:41:29.869Z,100541.97
2022-10-16T07:44:01.333Z,100553.63
2022-10-16T07:46:29.456Z,100556.09
2022-10-16T07:48:57.723Z,100564.63
2022-10-16T07:51:27.429Z,100566.78
2022-10-16T07:53:55.726Z,100576.00
2022-10-16T07:56:25.357Z,100578.94
2022-10-16T07:58:54.175Z,100576.81
2022-10-16T08:01:23.061Z,100581.28
2022-10-16T08:03:52.705Z,100591.13
2022-10-16T08:06:26.670Z,100594.09
2022-10-16T08:08:57.003Z,100593.78
2022-10-16T08:11:27.061Z,100593.09
2022-10-16T08:13:55.265Z,100598.19
2022-10-16T08:16:23.756Z,100594.44
2022-10-16T08:18:52.838Z,100586.19
2022-10-16T08:21:24.179Z,100593.75
2022-10-16T08:23:57.093Z,100588.16
2022-10-16T08:26:28.702Z,100585.50
2022-10-16T08:28:57.350Z,100577.78
2022-10-16T08:31:27.362Z,100583.53
2022-10-16T08:33:55.563Z,100579.25
2022-10-16T08:36:23.897Z,100572.47
2022-10-16T08:38:55.241Z,100571.97
2022-10-16T08:41:38.453Z,100568.69
2022-10-16T08:44:28.812Z,100560.78
2022-10-16T08:47:09.155Z,100567.19
2022-10-16T08:49:39.373Z,100574.22
2022-10-16T08:52:14.752Z,100584.25
2022-10-16T08:54:45.905Z,100590.66
2022-10-16T08:57:21.595Z,100599.84
2022-10-16T08:59:52.632Z,100596.06
2022-10-16T09:02:29.842Z,100591.94
2022-10-16T09:05:12.986Z,100593.88
2022-10-16T09:07:50.148Z,100591.53
2022-10-16T09:10:30.140Z,100585.75
2022-10-16T09:13:09.944Z,100588.69
2022-10-16T09:15:46.559Z,100591.81
2022-10-16T09:18:20.533Z,100590.66
2022-10-16T09:20:54.077Z,100602.50
2022-10-16T09:23:27.790Z,100614.81
2022-10-16T09:25:57.854Z,100620.78
2022-10-16T09:28:27.788Z,100623.06
2022-10-16T09:30:55.988Z,100629.97
2022-10-16T09:33:27.672Z,100628.63
2022-10-16T09:35:59.833Z,100623.38
2022-10-16T09:38:30.872Z,100628.94
2022-10-16T09:41:03.083Z,100635.66
2022-10-16T09:43:37.742Z,100624.13
2022-10-16T09:46:07.908Z,100627.22
2022-10-16T09:48:39.872Z,100633.81
2022-10-16T09:51:18.285Z,100635.09
2022-10-16T09:53:48.139Z,100637.41
2022-10-16T09:56:24.689Z,100638.03
2022-10-16T09:58:55.971Z,100645.63
2022-10-16T10:01:34.086Z,100628.59
2022-10-16T10:04:04.008Z,100617.19
2022-10-16T10:06:34.746Z,100620.44
2022-10-16T10:09:07.215Z,100630.47
2022-10-16T10:14:41.815Z,100636.88
2022-10-16T10:17:19.504Z,100631.59
2022-10-16T10:19:51.579Z,100624.97
2022-10-16T10:22:32.215Z,100621.16
2022-10-16T10:25:14.765Z,100619.34
2022-10-16T10:27:53.490Z,100624.44
2022-10-16T10:30:27.804Z,100621.97
2022-10-16T10:33:10.702Z,100619.97
2022-10-16T10:35:46.312Z,100612.25
2022-10-16T10:38:29.890Z,100613.72
2022-10-16T10:41:11.496Z,100621.63
2022-10-16T10:43:52.563Z,100632.19
2022-10-16T10:46:31.136Z,100635.19
2022-10-16T10:49:14.426Z,100635.00
2022-10-16T10:51:54.867Z,100634.16
2022-10-16T10:54:27.654Z,100638.28
2022-10-16T10:57:02.254Z,100646.69
2022-10-16T10:59:51.170Z,100643.38
2022-10-16T11:02:29.109Z,100644.03
2022-10-16T11:05:24.662Z,100646.50
2022-10-16T11:07:57.677Z,100648.59
2022-10-16T11:10:31.327Z,100657.34
2022-10-16T11:13:09.229Z,100656.69
2022-10-16T11:15:41.844Z,100657.69
2022-10-16T11:18:22.195Z,100658.88
2022-10-16T11:20:55.860Z,100654.59
2022-10-16T11:23:29.372Z,100662.16
2022-10-16T11:26:02.089Z,100666.78
2022-10-16T11:28:35.085Z,100675.53
2022-10-16T11:31:10.355Z,100678.16
2022-10-16T11:33:45.064Z,100673.91
2022-10-16T11:36:19.364Z,100669.59
2022-10-16T11:38:56.223Z,100667.81
2022-10-16T11:41:30.566Z,100668.63
2022-10-16T11:44:25.448Z,100680.63
2022-10-16T11:47:24.411Z,100680.44
2022-10-16T11:49:55.322Z,100671.06
2022-10-16T11:52:28.315Z,100675.16
2022-10-16T11:55:01.614Z,100674.34
2022-10-16T11:57:34.189Z,100668.44
2022-10-16T12:00:07.881Z,100655.22
2022-10-16T12:02:51.716Z,100657.88
2022-10-16T12:05:34.130Z,100656.06
2022-10-16T12:08:12.016Z,100652.59
2022-10-16T12:10:41.414Z,100647.94
2022-10-16T12:13:34.023Z,100633.50
2022-10-16T12:16:21.439Z,100637.91
2022-10-16T12:18:50.311Z,100635.94
2022-10-16T12:21:21.234Z,100637.91
2022-10-16T12:23:51.520Z,100633.66
2022-10-16T12:26:27.659Z,100633.50
2022-10-16T12:28:56.997Z,100637.91
2022-10-16T12:31:25.580Z,100644.03
2022-10-16T12:34:00.568Z,100642.22
2022-10-16T12:36:33.505Z,100644.03
2022-10-16T12:39:03.210Z,100644.19
2022-10-16T12:41:33.990Z,100651.63
2022-10-16T12:44:03.242Z,100644.09
2022-10-16T12:46:40.766Z,100647.41
2022-10-16T12:49:32.492Z,100654.53
2022-10-16T12:52:01.780Z,100649.63
2022-10-16T12:54:32.367Z,100643.53
2022-10-16T12:57:21.363Z,100635.13
2022-10-16T12:59:56.726Z,100636.56
2022-10-16T13:02:51.602Z,100631.00
2022-10-16T13:05:32.538Z,100627.22
2022-10-16T13:08:17.840Z,100616.84
2022-10-16T13:10:59.381Z,100618.47
2022-10-16T13:13:50.172Z,100606.91
2022-10-16T13:16:25.996Z,100603.28
2022-10-16T13:19:09.379Z,100607.09
2022-10-16T13:21:53.388Z,100598.53
2022-10-16T13:24:34.960Z,100589.16
2022-10-16T13:27:08.986Z,100587.88
2022-10-16T13:29:37.395Z,100574.69
2022-10-16T13:32:13.031Z,100578.47
2022-10-16T13:34:47.928Z,100574.22
2022-10-16T13:37:20.776Z,100578.66
2022-10-16T13:39:51.677Z,100570.41
2022-10-16T13:42:27.965Z,100575.22
2022-10-16T13:44:58.545Z,100570.09
2022-10-16T13:47:29.890Z,100560.91
2022-10-16T13:50:01.985Z,100559.63
2022-10-16T13:52:30.037Z,100560.63
2022-10-16T13:55:01.987Z,100537.88
2022-10-16T13:57:31.239Z,100518.81
2022-10-16T13:59:59.449Z,100515.19
2022-10-16T14:02:31.689Z,100514.84
2022-10-16T14:05:00.782Z,100530.47
2022-10-16T14:07:32.343Z,100530.13
2022-10-16T14:10:03.743Z,100519.00
2022-10-16T14:12:32.554Z,100504.16
2022-10-16T14:15:02.396Z,100501.34
2022-10-16T14:17:33.312Z,100488.97
2022-10-16T14:20:06.260Z,100465.25
2022-10-16T14:22:37.966Z,100466.25
2022-10-16T14:25:27.595Z,100450.59
2022-10-16T14:30:37.367Z,100435.22
2022-10-16T14:33:07.549Z,100430.13
2022-10-16T14:35:38.190Z,100415.75
2022-10-16T14:38:08.211Z,100405.66
2022-10-16T14:40:39.245Z,100408.97
2022-10-16T14:43:07.920Z,100400.84
2022-10-16T14:45:37.769Z,100400.50
2022-10-16T14:48:20.016Z,100406.22
2022-10-16T14:50:48.696Z,100403.84
2022-10-16T14:53:17.166Z,100391.31
2022-10-16T14:55:47.750Z,100386.50
2022-10-16T14:58:18.648Z,100377.38
2022-10-16T15:00:46.851Z,100384.13
2022-10-16T15:03:15.416Z,100377.03
2022-10-16T15:05:43.556Z,100366.94
2022-10-16T15:08:11.711Z,100352.53
2022-10-16T15:10:43.421Z,100342.44
2022-10-16T15:13:15.031Z,100340.03
2022-10-16T15:15:44.769Z,100339.03
2022-10-16T15:18:13.281Z,100316.75
2022-10-16T15:20:41.837Z,100313.94
2022-10-16T15:23:16.142Z,100307.28
2022-10-16T15:25:46.384Z,100299.38
2022-10-16T15:28:17.094Z,100277.88
2022-10-16T15:30:46.435Z,100281.16
2022-10-16T15:33:16.554Z,100277.69
2022-10-16T15:35:44.941Z,100287.03
2022-10-16T15:38:14.866Z,100269.38
2022-10-16T15:40:43.410Z,100262.09
2022-10-16T15:43:12.638Z,100266.81
2022-10-16T15:45:42.405Z,100249.34
2022-10-16T15:48:13.940Z,100252.25
2022-10-16T15:53:12.498Z,100255.88
2022-10-16T15:55:40.712Z,100248.94
2022-10-16T15:58:08.938Z,100257.88
2022-10-16T16:00:37.100Z,100248.53
2022-10-16T16:03:06.805Z,100246.47
2022-10-16T16:05:36.397Z,100229.16
2022-10-16T16:08:04.669Z,100225.09
2022-10-16T16:10:32.964Z,100216.72
2022-10-16T16:13:01.176Z,100216.28
2022-10-16T16:15:29.405Z,100201.59
2022-10-16T16:17:57.635Z,100188.94
2022-10-16T16:20:27.393Z,100196.88
2022-10-16T16:22:56.017Z,100194.88
2022-10-16T16:25:24.388Z,100184.31
2022-10-16T16:27:52.683Z,100165.03
2022-10-16T16:30:23.757Z,100154.06
2022-10-16T16:32:55.564Z,100137.91
2022-10-16T16:35:23.751Z,100131.44
2022-10-16T16:37:53.383Z,100125.94
2022-10-16T16:40:21.629Z,100114.00
2022-10-16T16:42:50.712Z,100110.34
2022-10-16T16:45:18.868Z,100096.78
2022-10-16T16:47:47.141Z,100087.25
2022-10-16T16:50:15.429Z,100077.97
2022-10-16T16:52:43.602Z,100062.56
2022-10-16T16:55:13.134Z,100055.03
2022-10-16T16:57:41.376Z,100051.38
2022-10-16T17:00:11.041Z,100033.31
2022-10-16T17:02:44.250Z,100013.22
2022-10-16T17:05:13.137Z,100007.13
2022-10-16T17:07:41.924Z,99979.31
2022-10-16T17:10:12.503Z,99968.28
2022-10-16T17:12:40.794Z,99955.69
2022-10-16T17:15:10.241Z,99968.69
2022-10-16T17:17:38.355Z,99957.91
2022-10-16T17:20:07.294Z,99946.34
2022-10-16T17:22:35.526Z,99929.50
2022-10-16T17:25:04.626Z,99909.41
2022-10-16T17:27:34.524Z,99889.91
2022-10-16T17:30:02.682Z,99894.78
2022-10-16T17:32:31.032Z,99893.56
2022-10-16T17:34:59.227Z,99871.19
2022-10-16T17:37:27.405Z,99845.22
2022-10-16T17:39:55.783Z,99845.84
2022-10-16T17:42:24.303Z,99830.59
2022-10-16T17:44:54.271Z,99793.63
2022-10-16T17:47:22.546Z,99799.91
2022-10-16T17:49:51.262Z,99782.84
2022-10-16T17:52:19.567Z,99796.03
2022-10-16T17:54:52.104Z,99779.59
2022-10-16T17:57:20.719Z,99763.75
2022-10-16T17:59:48.859Z,99783.47
2022-10-16T18:02:18.583Z,99784.69
2022-10-16T18:04:46.710Z,99768.84
2022-10-16T18:07:15.427Z,99744.03
2022-10-16T18:10:10.879Z,99736.91
2022-10-16T18:12:32.101Z,99709.09
2022-10-16T18:15:00.248Z,99701.19
2022-10-16T18:17:31.632Z,99675.97
2022-10-16T18:19:59.771Z,99662.34
2022-10-16T18:22:29.338Z,99634.47
2022-10-16T18:24:58.459Z,99629.00
2022-10-16T18:27:26.796Z,99594.44
2022-10-16T18:29:57.611Z,99561.91
2022-10-16T18:32:25.963Z,99530.38
2022-10-16T18:34:55.556Z,99515.13
2022-10-16T18:37:23.777Z,99505.75
2022-10-16T18:39:52.031Z,99501.69
2022-10-16T18:42:20.279Z,99498.81
2022-10-16T18:44:51.866Z,99474.03
2022-10-16T18:47:20.959Z,99452.72
2022-10-16T18:49:50.282Z,99439.50
2022-10-16T18:52:22.093Z,99426.88
2022-10-16T18:54:50.368Z,99438.25
2022-10-16T18:57:18.714Z,99456.34
2022-10-16T18:59:46.987Z,99436.81
2022-10-16T19:02:15.349Z,99448.78
2022-10-16T19:04:43.683Z,99431.31
2022-10-16T19:07:12.177Z,99413.59
2022-10-16T19:09:41.912Z,99406.88
2022-10-16T19:12:10.507Z,99403.00
2022-10-16T19:14:38.757Z,99396.91
2022-10-16T19:17:07.089Z,99386.13
2022-10-16T19:19:38.470Z,99381.63
2022-10-16T19:22:14.672Z,99386.69
2022-10-16T19:24:45.637Z,99379.81
2022-10-16T19:27:13.745Z,99386.94
2022-10-16T19:29:42.019Z,99380.84
2022-10-16T19:32:10.385Z,99377.16
2022-10-16T19:34:38.970Z,99363.75
2022-10-16T19:37:10.653Z,99339.13
2022-10-16T19:39:39.082Z,99339.13
2022-10-16T19:42:09.408Z,99328.78
2022-10-16T19:44:37.677Z,99338.53
2022-10-16T19:47:05.901Z,99330.03
2022-10-16T19:49:34.120Z,99323.09
2022-10-16T19:52:02.377Z,99280.47
2022-10-16T19:54:30.878Z,99306.06
2022-10-16T19:57:00.401Z,99319.72
2022-10-16T19:59:30.296Z,99317.31
2022-10-16T20:01:58.838Z,99313.81
2022-10-16T20:04:27.521Z,99272.97
2022-10-16T20:09:29.187Z,99223.41
2022-10-16T20:11:57.559Z,99206.31
2022-10-16T20:14:25.890Z,99198.59
2022-10-16T20:16:55.902Z,99154.47
2022-10-16T20:19:24.484Z,99136.75
2022-10-16T20:21:52.781Z,99128.84
2022-10-16T20:24:21.077Z,99116.09
2022-10-16T20:26:49.770Z,99107.13
2022-10-16T20:29:18.051Z,99089.06
2022-10-16T20:31:46.460Z,99061.47
2022-10-16T20:34:16.861Z,99072.03
2022-10-16T20:36:45.673Z,99064.34
2022-10-16T20:39:15.044Z,99058.25
2022-10-16T20:41:43.739Z,99058.81
2022-10-16T20:44:12.311Z,99041.97
2022-10-16T20:46:40.922Z,99041.50
2022-10-16T20:49:21.622Z,98995.09
2022-10-16T20:51:58.765Z,98987.31
2022-10-16T20:54:27.163Z,98991.78
2022-10-16T20:56:55.482Z,98983.63
2022-10-16T20:59:23.751Z,98973.06
2022-10-16T21:01:52.234Z,98949.28
2022-10-16T21:04:20.464Z,98988.91
2022-10-16T21:06:48.757Z,98969.59
2022-10-16T21:09:18.395Z,98928.34
2022-10-16T21:11:46.701Z,98894.25
2022-10-16T21:14:14.903Z,98911.81
2022-10-16T21:16:43.481Z,98911.00
2022-10-16T21:19:11.681Z,98896.56
2022-10-16T21:21:39.974Z,98892.88
2022-10-16T21:24:12.241Z,98894.25
2022-10-16T21:26:44.704Z,98888.53
2022-10-16T21:29:13.149Z,98868.19
2022-10-16T21:31:42.120Z,98862.72
2022-10-16T21:34:10.793Z,98855.00
2022-10-16T21:36:41.133Z,98860.16
2022-10-16T21:39:12.325Z,98858.19
2022-10-16T21:41:41.061Z,98865.97
2022-10-16T21:44:11.069Z,98872.97
2022-10-16T21:46:42.084Z,98871.56
2022-10-16T21:49:13.586Z,98877.31
2022-10-16T21:51:42.237Z,98888.06
2022-10-16T21:54:13.792Z,98891.63
2022-10-16T21:56:41.703Z,98879.44
2022-10-16T21:59:12.673Z,98890.69
2022-10-16T22:01:41.309Z,98903.28
2022-10-16T22:04:11.327Z,98904.53
2022-10-16T22:06:40.186Z,98907.41
2022-10-16T22:09:08.638Z,98905.44
2022-10-16T22:11:38.081Z,98914.81
2022-10-16T22:14:07.807Z,98918.69
2022-10-16T22:16:38.016Z,98924.19
2022-10-16T22:19:08.172Z,98935.19
2022-10-16T22:21:38.809Z,98938.84
2022-10-16T22:24:07.629Z,98950.59
2022-10-16T22:26:36.796Z,98939.47
2022-10-16T22:29:06.332Z,98934.44
2022-10-16T22:31:35.390Z,98938.53
2022-10-16T22:34:06.306Z,98927.38
2022-10-16T22:36:34.955Z,98934.72
2022-10-16T22:39:03.625Z,98940.22
2022-10-16T22:41:32.086Z,98940.41
2022-10-16T22:44:00.299Z,98944.31
2022-10-16T22:46:30.694Z,98939.47
2022-10-16T22:48:59.197Z,98950.81
2022-10-16T22:51:29.249Z,98956.97
2022-10-16T22:53:59.082Z,98958.19
2022-10-16T22:56:27.459Z,98960.63
2022-10-16T22:58:56.059Z,98959.59
2022-10-16T23:01:27.457Z,98966.72
2022-10-16T23:03:55.979Z,98960.41
2022-10-16T23:06:24.217Z,98953.72
2022-10-16T23:08:55.156Z,98959.00
2022-10-16T23:11:23.736Z,98970.81
2022-10-16T23:13:52.109Z,98964.72
2022-10-16T23:16:22.378Z,98965.31
2022-10-16T23:18:50.900Z,98973.44
2022-10-16T23:21:21.290Z,98970.97
2022-10-16T23:23:49.932Z,98981.28
2022-10-16T23:26:21.647Z,98973.97
2022-10-16T23:28:50.275Z,98977.19
2022-10-16T23:31:19.176Z,98973.53
2022-10-16T23:33:47.334Z,98979.03
2022-10-16T23:36:17.840Z,98978.81
2022-10-16T23:38:46.716Z,98992.97
2022-10-16T23:41:16.297Z,98992.75
2022-10-16T23:43:46.126Z,98996.56
2022-10-16T23:46:15.679Z,99006.53
2022-10-16T23:48:44.322Z,99024.78
2022-10-16T23:51:12.787Z,99033.44
2022-10-16T23:53:41.298Z,99054.78
2022-10-16T23:56:09.669Z,99064.72
2022-10-16T23:58:38.219Z,99064.94
